createdAt,value
2019-03-29T00:01:59.358Z,8.70
2019-03-29T00:04:30.159Z,8.80
2019-03-29T00:07:00.934Z,8.60
2019-03-29T00:09:31.816Z,8.60
2019-03-29T00:12:02.504Z,8.50
2019-03-29T00:14:33.281Z,8.50
2019-03-29T00:17:04.059Z,8.40
2019-03-29T00:19:34.909Z,8.40
2019-03-29T00:22:05.749Z,8.30
2019-03-29T00:24:36.563Z,8.20
2019-03-29T00:27:07.288Z,8.20
2019-03-29T00:29:38.149Z,8.20
2019-03-29T00:32:08.852Z,8.10
2019-03-29T00:34:41.903Z,8.30
2019-03-29T00:37:12.779Z,8.10
2019-03-29T00:39:43.573Z,8.10
2019-03-29T00:42:14.578Z,7.90
2019-03-29T00:44:45.346Z,8.00
2019-03-29T00:47:16.228Z,8.00
2019-03-29T00:49:46.922Z,7.80
2019-03-29T00:52:17.742Z,7.80
2019-03-29T00:54:48.598Z,7.80
2019-03-29T00:57:19.355Z,7.80
2019-03-29T00:59:50.117Z,7.80
2019-03-29T01:02:20.889Z,7.80
2019-03-29T01:04:51.583Z,7.90
2019-03-29T01:07:22.425Z,7.80
2019-03-29T01:09:53.271Z,7.70
2019-03-29T01:12:24.933Z,7.60
2019-03-29T01:14:56.698Z,7.50
2019-03-29T01:17:27.464Z,7.50
2019-03-29T01:19:58.246Z,7.60
2019-03-29T01:22:29.025Z,7.60
2019-03-29T01:24:59.870Z,7.60
2019-03-29T01:27:30.732Z,7.50
2019-03-29T01:30:01.537Z,7.50
2019-03-29T01:32:32.445Z,7.40
2019-03-29T01:35:03.827Z,7.30
2019-03-29T01:37:34.532Z,7.30
2019-03-29T01:40:05.748Z,7.20
2019-03-29T01:42:37.362Z,7.30
2019-03-29T01:45:09.422Z,7.20
2019-03-29T01:47:40.103Z,7.30
2019-03-29T01:50:11.451Z,7.30
2019-03-29T01:52:42.132Z,7.20
2019-03-29T01:55:13.114Z,7.20
2019-03-29T01:57:43.888Z,7.10
2019-03-29T02:00:24.070Z,7.30
2019-03-29T02:02:54.931Z,7.10
2019-03-29T02:05:25.797Z,7.10
2019-03-29T02:07:57.772Z,7.00
2019-03-29T02:10:28.672Z,6.90
2019-03-29T02:12:59.872Z,6.90
2019-03-29T02:15:30.691Z,6.90
2019-03-29T02:18:01.580Z,6.90
2019-03-29T02:20:32.398Z,7.00
2019-03-29T02:23:04.134Z,6.90
2019-03-29T02:25:35.734Z,6.90
2019-03-29T02:28:06.731Z,6.80
2019-03-29T02:30:37.518Z,6.80
2019-03-29T02:33:08.300Z,6.90
2019-03-29T02:35:39.740Z,6.90
2019-03-29T02:38:10.681Z,6.90
2019-03-29T02:40:41.491Z,6.80
2019-03-29T02:43:12.282Z,6.70
2019-03-29T02:45:43.125Z,6.60
2019-03-29T02:48:13.839Z,6.60
2019-03-29T02:50:44.765Z,6.50
2019-03-29T02:53:15.486Z,6.60
2019-03-29T02:55:46.328Z,6.50
2019-03-29T02:58:17.173Z,6.70
2019-03-29T03:00:49.007Z,6.70
2019-03-29T03:03:19.780Z,6.60
2019-03-29T03:05:50.557Z,6.50
2019-03-29T03:08:21.338Z,6.60
2019-03-29T03:10:52.126Z,6.60
2019-03-29T03:13:23.087Z,6.40
2019-03-29T03:15:53.774Z,6.50
2019-03-29T03:18:24.551Z,6.50
2019-03-29T03:20:55.309Z,6.50
2019-03-29T03:23:26.095Z,6.40
2019-03-29T03:25:57.932Z,6.30
2019-03-29T03:28:28.720Z,6.30
2019-03-29T03:30:59.667Z,6.30
2019-03-29T03:33:30.502Z,6.30
2019-03-29T03:36:01.305Z,6.30
2019-03-29T03:38:32.176Z,6.30
2019-03-29T03:41:03.037Z,6.20
2019-03-29T03:43:35.408Z,6.20
2019-03-29T03:46:06.292Z,6.20
2019-03-29T03:48:37.281Z,6.30
2019-03-29T03:51:08.310Z,6.20
2019-03-29T03:53:39.349Z,6.10
2019-03-29T03:56:11.610Z,6.00
2019-03-29T03:58:42.736Z,6.10
2019-03-29T04:01:13.651Z,6.10
2019-03-29T04:03:44.428Z,6.10
2019-03-29T04:06:15.382Z,6.10
2019-03-29T04:08:46.412Z,6.10
2019-03-29T04:11:17.527Z,6.10
2019-03-29T04:13:48.351Z,5.90
2019-03-29T04:16:19.026Z,6.00
2019-03-29T04:18:49.847Z,6.00
2019-03-29T04:21:20.650Z,5.90
2019-03-29T04:23:51.352Z,5.90
2019-03-29T04:26:22.223Z,5.90
2019-03-29T04:29:04.035Z,5.90
2019-03-29T04:31:25.545Z,5.80
2019-03-29T04:33:57.594Z,5.80
2019-03-29T04:36:29.475Z,5.60
2019-03-29T04:39:00.279Z,5.70
2019-03-29T04:41:31.220Z,5.70
2019-03-29T04:44:02.009Z,5.60
2019-03-29T04:46:32.799Z,5.60
2019-03-29T04:49:03.752Z,5.50
2019-03-29T04:51:34.537Z,5.60
2019-03-29T04:54:05.637Z,5.60
2019-03-29T04:56:36.508Z,5.70
2019-03-29T04:59:07.218Z,5.60
2019-03-29T05:01:37.984Z,5.60
2019-03-29T05:04:08.692Z,5.70
2019-03-29T05:06:39.459Z,5.60
2019-03-29T05:09:10.478Z,5.40
2019-03-29T05:11:41.210Z,5.60
2019-03-29T05:14:12.005Z,5.60
2019-03-29T05:16:44.076Z,5.40
2019-03-29T05:19:14.944Z,5.50
2019-03-29T05:21:45.713Z,5.60
2019-03-29T05:24:17.201Z,5.50
2019-03-29T05:26:47.963Z,5.50
2019-03-29T05:29:18.752Z,5.50
2019-03-29T05:31:49.537Z,5.70
2019-03-29T05:34:20.342Z,5.70
2019-03-29T05:36:51.106Z,5.80
2019-03-29T05:39:21.887Z,5.80
2019-03-29T05:41:53.647Z,5.80
2019-03-29T05:44:24.458Z,5.80
2019-03-29T05:46:55.409Z,5.90
2019-03-29T05:49:26.134Z,5.90
2019-03-29T05:51:56.872Z,6.10
2019-03-29T05:54:27.826Z,6.30
2019-03-29T05:56:58.615Z,6.30
2019-03-29T05:59:29.428Z,6.10
2019-03-29T06:02:00.972Z,6.20
2019-03-29T06:04:31.739Z,6.20
2019-03-29T06:07:02.484Z,6.40
2019-03-29T06:09:34.997Z,6.30
2019-03-29T06:12:06.184Z,6.30
2019-03-29T06:14:36.962Z,6.30
2019-03-29T06:17:07.735Z,6.40
2019-03-29T06:19:38.463Z,6.40
2019-03-29T06:22:09.328Z,6.30
2019-03-29T06:24:41.388Z,6.30
2019-03-29T06:27:12.100Z,6.30
2019-03-29T06:29:42.874Z,6.80
2019-03-29T06:32:13.916Z,6.90
2019-03-29T06:34:44.795Z,6.80
2019-03-29T06:37:19.191Z,6.70
2019-03-29T06:39:52.730Z,6.70
2019-03-29T06:42:23.593Z,6.60
2019-03-29T06:44:54.354Z,6.70
2019-03-29T06:47:25.122Z,6.80
2019-03-29T06:49:57.028Z,6.80
2019-03-29T06:52:27.974Z,7.10
2019-03-29T06:54:58.757Z,7.00
2019-03-29T06:57:29.647Z,7.10
2019-03-29T07:00:01.547Z,7.40
2019-03-29T07:02:32.225Z,7.50
2019-03-29T07:05:03.075Z,7.50
2019-03-29T07:07:33.917Z,7.80
2019-03-29T07:10:05.098Z,7.60
2019-03-29T07:12:35.930Z,7.80
2019-03-29T07:15:07.268Z,7.60
2019-03-29T07:17:38.011Z,7.80
2019-03-29T07:20:08.919Z,8.00
2019-03-29T07:22:39.819Z,8.20
2019-03-29T07:25:11.325Z,8.20
2019-03-29T07:27:46.748Z,8.30
2019-03-29T07:30:15.166Z,8.40
2019-03-29T07:32:46.116Z,8.50
2019-03-29T07:35:16.879Z,8.50
2019-03-29T07:37:47.650Z,8.60
2019-03-29T07:40:18.582Z,8.50
2019-03-29T07:42:49.340Z,8.60
2019-03-29T07:45:20.196Z,8.60
2019-03-29T07:47:51.099Z,8.60
2019-03-29T07:50:21.967Z,8.80
2019-03-29T07:52:52.758Z,9.00
2019-03-29T07:55:23.536Z,9.00
2019-03-29T07:57:54.294Z,9.10
2019-03-29T08:00:25.076Z,9.30
2019-03-29T08:02:56.309Z,9.70
2019-03-29T08:05:27.357Z,9.80
2019-03-29T08:07:58.134Z,9.60
2019-03-29T08:10:31.247Z,9.60
2019-03-29T08:13:02.453Z,9.90
2019-03-29T08:15:33.345Z,9.90
2019-03-29T08:18:04.119Z,9.90
2019-03-29T08:20:43.297Z,9.70
2019-03-29T08:23:07.486Z,9.90
2019-03-29T08:25:38.276Z,9.80
2019-03-29T08:28:09.086Z,9.90
2019-03-29T08:30:40.060Z,9.80
2019-03-29T08:33:10.873Z,9.80
2019-03-29T08:35:41.580Z,9.80
2019-03-29T08:38:13.143Z,10.10
2019-03-29T08:40:45.396Z,10.30
2019-03-29T08:43:16.449Z,10.30
2019-03-29T08:45:47.383Z,10.60
2019-03-29T08:48:18.228Z,10.80
2019-03-29T08:50:48.960Z,10.90
2019-03-29T08:53:19.674Z,11.00
2019-03-29T08:55:50.645Z,11.10
2019-03-29T08:58:21.418Z,11.20
2019-03-29T09:00:52.205Z,11.40
2019-03-29T09:03:25.855Z,11.40
2019-03-29T09:05:57.099Z,11.50
2019-03-29T09:08:28.021Z,11.40
2019-03-29T09:10:58.893Z,11.80
2019-03-29T09:13:29.682Z,12.00
2019-03-29T09:16:00.666Z,12.00
2019-03-29T09:18:31.436Z,11.90
2019-03-29T09:21:03.357Z,11.90
2019-03-29T09:23:34.125Z,11.90
2019-03-29T09:26:05.168Z,12.00
2019-03-29T09:28:35.993Z,12.20
2019-03-29T09:31:07.146Z,12.50
2019-03-29T09:33:38.080Z,12.80
2019-03-29T09:36:08.943Z,13.00
2019-03-29T09:38:39.723Z,13.20
2019-03-29T09:41:10.669Z,13.20
2019-03-29T09:43:41.634Z,13.40
2019-03-29T09:46:13.018Z,13.40
2019-03-29T09:48:46.655Z,13.50
2019-03-29T09:51:17.528Z,13.10
2019-03-29T09:53:48.368Z,12.50
2019-03-29T09:56:19.144Z,12.60
2019-03-29T09:58:49.916Z,12.50
2019-03-29T10:01:21.032Z,12.60
2019-03-29T10:03:52.797Z,12.90
2019-03-29T10:06:23.678Z,12.90
2019-03-29T10:08:54.531Z,12.90
2019-03-29T10:11:25.380Z,12.90
2019-03-29T10:13:56.147Z,13.20
2019-03-29T10:16:27.096Z,13.00
2019-03-29T10:18:57.878Z,12.90
2019-03-29T10:21:28.625Z,13.10
2019-03-29T10:23:59.408Z,13.10
2019-03-29T10:26:30.261Z,13.20
2019-03-29T10:29:02.161Z,13.50
2019-03-29T10:31:33.037Z,13.50
2019-03-29T10:34:04.426Z,13.70
2019-03-29T10:36:35.289Z,13.80
2019-03-29T10:39:12.536Z,13.90
2019-03-29T10:41:43.607Z,14.40
2019-03-29T10:44:14.478Z,14.30
2019-03-29T10:46:46.318Z,14.80
2019-03-29T10:49:17.087Z,14.70
2019-03-29T10:51:47.945Z,14.50
2019-03-29T10:54:18.999Z,14.60
2019-03-29T10:56:49.856Z,14.70
2019-03-29T10:59:27.146Z,14.50
2019-03-29T11:01:53.034Z,14.70
2019-03-29T11:04:23.930Z,14.70
2019-03-29T11:06:54.782Z,15.10
2019-03-29T11:09:25.567Z,15.90
2019-03-29T11:11:56.261Z,16.60
2019-03-29T11:14:27.168Z,16.90
2019-03-29T11:16:57.859Z,17.10
2019-03-29T11:19:29.119Z,16.80
2019-03-29T11:21:59.887Z,17.20
2019-03-29T11:24:30.783Z,17.80
2019-03-29T11:27:01.601Z,17.90
2019-03-29T11:29:34.013Z,18.70
2019-03-29T11:32:05.437Z,18.70
2019-03-29T11:34:36.281Z,18.70
2019-03-29T11:37:07.336Z,19.20
2019-03-29T11:39:38.186Z,19.60
2019-03-29T11:42:08.895Z,19.30
2019-03-29T11:44:39.736Z,19.20
2019-03-29T11:47:10.736Z,19.60
2019-03-29T11:49:41.576Z,19.60
2019-03-29T11:52:12.429Z,19.70
2019-03-29T11:54:43.282Z,19.30
2019-03-29T11:57:14.335Z,19.90
2019-03-29T11:59:45.281Z,20.50
2019-03-29T12:02:30.253Z,21.40
2019-03-29T12:04:48.772Z,21.00
2019-03-29T12:07:19.661Z,20.70
2019-03-29T12:09:50.434Z,20.70
2019-03-29T12:12:22.445Z,21.00
2019-03-29T12:14:53.218Z,21.10
2019-03-29T12:17:24.094Z,21.30
2019-03-29T12:19:54.929Z,20.30
2019-03-29T12:22:25.783Z,20.80
2019-03-29T12:24:56.533Z,21.10
2019-03-29T12:27:27.410Z,21.50
2019-03-29T12:29:58.178Z,20.40
2019-03-29T12:32:28.944Z,20.80
2019-03-29T12:34:59.812Z,21.20
2019-03-29T12:37:31.824Z,21.60
2019-03-29T12:40:02.595Z,20.60
2019-03-29T12:42:33.453Z,20.50
2019-03-29T12:45:04.494Z,21.00
2019-03-29T12:47:36.380Z,21.30
2019-03-29T12:50:08.404Z,21.90
2019-03-29T12:52:39.260Z,21.40
2019-03-29T12:55:10.558Z,21.20
2019-03-29T12:57:41.349Z,21.50
2019-03-29T13:00:14.186Z,19.60
2019-03-29T13:02:45.596Z,20.00
2019-03-29T13:05:16.609Z,21.20
2019-03-29T13:07:47.490Z,22.00
2019-03-29T13:10:19.226Z,21.70
2019-03-29T13:12:50.028Z,21.40
2019-03-29T13:15:20.921Z,22.20
2019-03-29T13:17:51.809Z,22.30
2019-03-29T13:20:23.603Z,22.40
2019-03-29T13:22:54.527Z,22.40
2019-03-29T13:25:25.655Z,22.20
2019-03-29T13:27:59.357Z,21.20
2019-03-29T13:30:29.257Z,21.60
2019-03-29T13:33:00.146Z,22.50
2019-03-29T13:35:31.018Z,23.50
2019-03-29T13:38:01.876Z,23.30
2019-03-29T13:40:32.903Z,23.10
2019-03-29T13:43:03.699Z,22.80
2019-03-29T13:45:34.558Z,22.40
2019-03-29T13:48:05.467Z,22.30
2019-03-29T13:50:37.227Z,22.70
2019-03-29T13:53:08.215Z,22.00
2019-03-29T13:55:38.921Z,21.90
2019-03-29T13:58:09.796Z,20.40
2019-03-29T14:00:40.595Z,20.40
2019-03-29T14:03:11.474Z,19.60
2019-03-29T14:05:42.248Z,19.80
2019-03-29T14:08:13.154Z,19.90
2019-03-29T14:10:44.101Z,19.60
2019-03-29T14:13:15.152Z,19.60
2019-03-29T14:15:45.994Z,19.20
2019-03-29T14:18:16.704Z,19.60
2019-03-29T14:20:47.557Z,19.50
2019-03-29T14:23:18.365Z,19.50
2019-03-29T14:25:49.218Z,19.40
2019-03-29T14:28:20.094Z,19.50
2019-03-29T14:30:50.933Z,18.90
2019-03-29T14:33:21.743Z,19.30
2019-03-29T14:35:52.446Z,19.70
2019-03-29T14:38:23.229Z,19.90
2019-03-29T14:40:53.951Z,20.20
2019-03-29T14:43:24.843Z,19.80
2019-03-29T14:45:55.694Z,19.40
2019-03-29T14:48:26.555Z,18.60
2019-03-29T14:50:57.490Z,19.10
2019-03-29T14:53:29.328Z,18.70
2019-03-29T14:56:00.116Z,18.40
2019-03-29T14:58:31.006Z,18.90
2019-03-29T15:01:01.882Z,19.80
2019-03-29T15:03:32.680Z,20.90
2019-03-29T15:06:03.723Z,21.30
2019-03-29T15:08:34.698Z,21.40
2019-03-29T15:11:05.555Z,21.50
2019-03-29T15:13:36.350Z,21.30
2019-03-29T15:16:07.234Z,21.50
2019-03-29T15:18:38.744Z,21.60
2019-03-29T15:21:10.514Z,21.10
2019-03-29T15:23:41.486Z,21.10
2019-03-29T15:26:12.323Z,21.30
2019-03-29T15:28:43.114Z,21.40
2019-03-29T15:31:13.812Z,20.60
2019-03-29T15:33:44.710Z,20.60
2019-03-29T15:36:16.404Z,20.40
2019-03-29T15:38:47.205Z,19.30
2019-03-29T15:41:18.074Z,18.70
2019-03-29T15:43:48.976Z,19.00
2019-03-29T15:46:19.882Z,18.80
2019-03-29T15:48:50.760Z,18.60
2019-03-29T15:51:21.626Z,17.90
2019-03-29T15:53:52.438Z,17.50
2019-03-29T15:56:23.291Z,17.80
2019-03-29T15:58:54.123Z,17.60
2019-03-29T16:01:25.014Z,17.50
2019-03-29T16:03:55.845Z,16.90
2019-03-29T16:06:26.692Z,17.00
2019-03-29T16:08:57.615Z,17.00
2019-03-29T16:11:28.376Z,17.10
2019-03-29T16:13:59.125Z,16.90
2019-03-29T16:16:29.911Z,16.60
2019-03-29T16:19:00.731Z,17.00
2019-03-29T16:21:31.519Z,16.70
2019-03-29T16:24:02.316Z,16.90
2019-03-29T16:26:33.192Z,16.90
2019-03-29T16:29:03.914Z,15.90
2019-03-29T16:31:34.690Z,16.10
2019-03-29T16:34:05.716Z,15.40
2019-03-29T16:36:36.636Z,15.30
2019-03-29T16:39:09.206Z,15.30
2019-03-29T16:41:40.281Z,14.90
2019-03-29T16:44:11.239Z,14.90
2019-03-29T16:46:42.182Z,14.80
2019-03-29T16:49:12.992Z,14.70
2019-03-29T16:51:43.761Z,14.50
2019-03-29T16:54:15.294Z,14.80
2019-03-29T16:56:46.123Z,14.90
2019-03-29T16:59:16.980Z,14.90
2019-03-29T17:01:51.035Z,14.70
2019-03-29T17:04:20.448Z,14.80
2019-03-29T17:06:51.326Z,14.80
2019-03-29T17:09:22.156Z,14.50
2019-03-29T17:11:53.127Z,14.30
2019-03-29T17:14:23.932Z,14.20
2019-03-29T17:16:54.822Z,13.90
2019-03-29T17:19:26.491Z,13.80
2019-03-29T17:21:57.314Z,14.00
2019-03-29T17:24:28.088Z,13.90
2019-03-29T17:26:58.822Z,13.90
2019-03-29T17:29:31.082Z,13.80
2019-03-29T17:32:02.037Z,13.60
2019-03-29T17:34:32.842Z,13.40
2019-03-29T17:37:03.647Z,13.40
2019-03-29T17:39:34.542Z,13.10
2019-03-29T17:42:05.492Z,12.90
2019-03-29T17:44:36.425Z,12.80
2019-03-29T17:47:07.485Z,12.80
2019-03-29T17:49:38.458Z,12.70
2019-03-29T17:52:09.253Z,12.70
2019-03-29T17:54:41.181Z,12.80
2019-03-29T17:57:12.062Z,12.70
2019-03-29T17:59:42.859Z,12.70
2019-03-29T18:02:13.652Z,12.50
2019-03-29T18:04:44.364Z,12.30
2019-03-29T18:07:15.130Z,12.30
2019-03-29T18:09:46.056Z,12.20
2019-03-29T18:12:16.911Z,12.30
2019-03-29T18:14:47.717Z,12.10
2019-03-29T18:17:18.821Z,12.10
2019-03-29T18:19:50.241Z,12.00
2019-03-29T18:22:21.125Z,11.90
2019-03-29T18:24:51.918Z,11.80
2019-03-29T18:27:22.622Z,11.80
2019-03-29T18:29:53.343Z,11.80
2019-03-29T18:32:24.642Z,11.70
2019-03-29T18:34:55.882Z,11.70
2019-03-29T18:37:27.609Z,11.70
2019-03-29T18:39:58.675Z,11.70
2019-03-29T18:42:29.395Z,11.70
2019-03-29T18:45:00.401Z,11.50
2019-03-29T18:47:31.212Z,11.50
2019-03-29T18:50:02.022Z,11.40
2019-03-29T18:52:32.969Z,11.30
2019-03-29T18:55:03.904Z,11.20
2019-03-29T18:57:34.927Z,11.50
2019-03-29T19:00:06.928Z,11.30
2019-03-29T19:02:38.029Z,11.20
2019-03-29T19:05:13.142Z,11.10
2019-03-29T19:07:44.022Z,11.10
2019-03-29T19:10:15.069Z,11.10
2019-03-29T19:12:45.942Z,11.00
2019-03-29T19:15:16.826Z,11.00
2019-03-29T19:17:47.617Z,11.00
2019-03-29T19:20:27.387Z,11.00
2019-03-29T19:22:51.312Z,10.90
2019-03-29T19:25:22.289Z,10.90
2019-03-29T19:27:53.346Z,10.80
2019-03-29T19:30:24.700Z,10.90
2019-03-29T19:32:55.457Z,11.00
2019-03-29T19:35:26.356Z,10.80
2019-03-29T19:37:57.240Z,10.80
2019-03-29T19:40:28.061Z,10.80
2019-03-29T19:42:59.048Z,10.70
2019-03-29T19:45:34.134Z,10.70
2019-03-29T19:48:03.794Z,10.60
2019-03-29T19:50:34.680Z,10.60
2019-03-29T19:53:06.609Z,10.40
2019-03-29T19:55:37.475Z,10.40
2019-03-29T19:58:08.316Z,10.50
2019-03-29T20:00:44.056Z,10.50
2019-03-29T20:03:14.902Z,10.40
2019-03-29T20:05:45.734Z,10.30
2019-03-29T20:08:16.695Z,10.30
2019-03-29T20:10:48.764Z,10.40
2019-03-29T20:13:19.722Z,10.10
2019-03-29T20:15:50.610Z,10.00
2019-03-29T20:18:21.334Z,10.20
2019-03-29T20:20:52.138Z,10.10
2019-03-29T20:23:22.941Z,10.10
2019-03-29T20:25:54.162Z,10.10
2019-03-29T20:28:24.936Z,10.10
2019-03-29T20:30:56.090Z,10.10
2019-03-29T20:33:26.899Z,10.00
2019-03-29T20:35:57.937Z,10.00
2019-03-29T20:38:28.875Z,10.10
2019-03-29T20:40:59.568Z,10.10
2019-03-29T20:43:30.239Z,9.80
2019-03-29T20:46:01.109Z,9.80
2019-03-29T20:48:31.930Z,9.80
2019-03-29T20:51:02.832Z,9.60
2019-03-29T20:53:33.525Z,9.70
2019-03-29T20:56:06.591Z,9.70
2019-03-29T20:58:37.082Z,9.60
2019-03-29T21:01:08.721Z,9.60
2019-03-29T21:03:39.697Z,9.70
2019-03-29T21:06:10.561Z,9.80
2019-03-29T21:08:42.298Z,9.80
2019-03-29T21:11:13.144Z,9.60
2019-03-29T21:13:44.924Z,9.50
2019-03-29T21:16:15.657Z,9.40
2019-03-29T21:18:47.692Z,9.40
2019-03-29T21:21:18.562Z,9.40
2019-03-29T21:23:49.465Z,9.30
2019-03-29T21:26:20.246Z,9.30
2019-03-29T21:28:52.859Z,9.40
2019-03-29T21:31:23.562Z,9.30
2019-03-29T21:33:54.378Z,9.20
2019-03-29T21:36:25.601Z,9.20
2019-03-29T21:38:56.387Z,9.10
2019-03-29T21:41:27.247Z,9.00
2019-03-29T21:43:58.165Z,9.00
2019-03-29T21:46:29.003Z,8.90
2019-03-29T21:48:59.697Z,9.00
2019-03-29T21:51:30.714Z,9.00
2019-03-29T21:54:01.406Z,9.00
2019-03-29T21:56:32.215Z,9.00
2019-03-29T21:59:02.915Z,9.00
2019-03-29T22:01:33.766Z,8.90
2019-03-29T22:04:04.515Z,8.90
2019-03-29T22:06:35.316Z,8.80
2019-03-29T22:09:08.487Z,8.70
2019-03-29T22:11:39.284Z,8.70
2019-03-29T22:14:10.038Z,8.70
2019-03-29T22:16:42.147Z,8.70
2019-03-29T22:19:12.979Z,8.80
2019-03-29T22:21:43.886Z,8.80
2019-03-29T22:24:14.709Z,8.70
2019-03-29T22:26:46.364Z,8.70
2019-03-29T22:29:17.134Z,8.70
2019-03-29T22:31:48.182Z,8.80
2019-03-29T22:34:19.872Z,8.80
2019-03-29T22:36:50.673Z,8.70
2019-03-29T22:39:21.377Z,8.70
2019-03-29T22:41:52.096Z,8.70
2019-03-29T22:44:22.864Z,8.60
2019-03-29T22:46:53.651Z,8.60
2019-03-29T22:49:24.357Z,8.70
2019-03-29T22:51:55.130Z,8.70
2019-03-29T22:54:26.056Z,8.60
2019-03-29T22:56:56.929Z,8.70
2019-03-29T22:59:27.632Z,8.60
2019-03-29T23:01:58.407Z,8.50
2019-03-29T23:04:29.260Z,8.50
2019-03-29T23:07:00.176Z,8.50
2019-03-29T23:09:31.319Z,8.40
2019-03-29T23:12:02.195Z,8.40
2019-03-29T23:14:33.167Z,8.30
2019-03-29T23:17:04.059Z,8.20
2019-03-29T23:19:34.845Z,8.00
2019-03-29T23:22:05.633Z,8.00
2019-03-29T23:24:36.431Z,7.60
2019-03-29T23:27:07.238Z,7.60
2019-03-29T23:29:38.021Z,7.60
2019-03-29T23:32:08.773Z,7.60
2019-03-29T23:34:40.316Z,7.80
2019-03-29T23:37:11.071Z,7.80
2019-03-29T23:39:41.777Z,7.80
2019-03-29T23:42:12.524Z,7.80
2019-03-29T23:44:43.259Z,7.80
2019-03-29T23:47:14.095Z,7.60
2019-03-29T23:49:44.966Z,7.60
2019-03-29T23:52:15.723Z,7.60
2019-03-29T23:54:47.612Z,7.50
2019-03-29T23:57:18.395Z,7.40
2019-03-29T23:59:49.431Z,7.30
